Time;durP1;ratioP1;P1;durP2;ratioP2;P2;SDS_P1;SDS_P2;PMS_P1;PMS_P2;Temp;Humidity;BMP_temperature;BMP_pressure;BME280_temperature;BME280_humidity;BME280_pressure;Samples;Min_cycle;Max_cycle;Signal;HPM_P1;HPM_P2
2023/07/28 00:01:26;;;;;;;22.52;8.20;;;18.40;99.90;;;;;;5100710;28;20514;-81
2023/07/28 00:03:51;;;;;;;21.55;9.23;;;18.40;99.90;;;;;;5087654;28;20043;-81
2023/07/28 00:06:17;;;;;;;23.92;8.30;;;18.50;99.90;;;;;;5096294;27;20047;-81
2023/07/28 00:08:43;;;;;;;16.98;7.80;;;18.50;99.90;;;;;;5086377;27;20040;-82
2023/07/28 00:11:14;;;;;;;18.35;8.23;;;18.40;99.90;;;;;;5083598;27;20043;-81
2023/07/28 00:13:40;;;;;;;18.70;9.73;;;18.40;99.90;;;;;;5104888;27;20611;-81
2023/07/28 00:16:07;;;;;;;15.50;8.70;;;18.40;99.90;;;;;;5097002;27;20443;-82
2023/07/28 00:18:33;;;;;;;14.23;8.63;;;18.40;99.90;;;;;;5087105;27;20126;-82
2023/07/28 00:20:59;;;;;;;16.13;8.80;;;18.40;99.90;;;;;;5086277;27;20453;-81
2023/07/28 00:23:25;;;;;;;17.02;8.65;;;18.40;99.90;;;;;;5096473;27;20072;-82
2023/07/28 00:25:51;;;;;;;17.45;8.30;;;18.50;99.90;;;;;;5080898;27;20527;-82
2023/07/28 00:28:16;;;;;;;17.75;8.68;;;18.40;99.90;;;;;;5105122;27;20162;-82
2023/07/28 00:30:42;;;;;;;14.18;8.68;;;18.50;99.90;;;;;;5109829;27;20564;-83
2023/07/28 00:33:08;;;;;;;14.48;8.73;;;18.40;99.90;;;;;;5108163;27;20097;-82
2023/07/28 00:35:33;;;;;;;20.63;8.45;;;18.40;99.90;;;;;;5100142;27;20447;-82
2023/07/28 00:37:59;;;;;;;14.20;7.75;;;18.40;99.90;;;;;;5092357;27;20049;-82
2023/07/28 00:40:25;;;;;;;17.67;8.95;;;18.50;99.90;;;;;;5086010;27;20043;-81
2023/07/28 00:42:50;;;;;;;17.92;9.13;;;18.50;99.90;;;;;;5091611;27;20146;-82
2023/07/28 00:45:16;;;;;;;20.38;9.50;;;18.50;99.90;;;;;;5091821;27;20039;-82
2023/07/28 00:47:42;;;;;;;18.98;10.25;;;18.40;99.90;;;;;;5108176;27;20043;-81
2023/07/28 00:50:12;;;;;;;18.60;9.30;;;18.50;99.90;;;;;;5081698;27;20746;-81
2023/07/28 00:52:38;;;;;;;22.83;10.27;;;18.40;99.90;;;;;;5088016;27;20488;-82
2023/07/28 00:55:10;;;;;;;19.55;9.48;;;18.40;99.90;;;;;;5079878;27;20036;-82
2023/07/28 00:57:35;;;;;;;22.42;10.50;;;18.40;99.90;;;;;;5090298;27;20134;-82
2023/07/28 01:00:02;;;;;;;18.30;10.02;;;18.40;99.90;;;;;;5104770;27;20774;-81
2023/07/28 01:02:27;;;;;;;19.85;10.68;;;18.50;99.90;;;;;;5112338;27;20108;-82
2023/07/28 01:04:54;;;;;;;23.60;10.85;;;18.40;99.90;;;;;;5083545;27;20470;-82
2023/07/28 01:07:47;;;;;;;22.48;11.63;;;18.40;99.90;;;;;;5106389;27;20045;-82
2023/07/28 01:10:22;;;;;;;23.08;10.60;;;18.40;99.90;;;;;;5103951;27;20110;-81
2023/07/28 01:12:48;;;;;;;27.23;12.13;;;18.40;99.90;;;;;;5098927;27;20481;-82
2023/07/28 01:15:14;;;;;;;26.27;11.15;;;18.40;99.90;;;;;;5108534;27;20082;-81
2023/07/28 01:17:42;;;;;;;20.88;10.82;;;18.40;99.90;;;;;;5103058;27;20047;-81
2023/07/28 01:20:07;;;;;;;24.30;11.30;;;18.40;99.90;;;;;;5089816;27;20032;-82
2023/07/28 01:22:46;;;;;;;23.75;11.63;;;18.40;99.90;;;;;;5087673;27;20474;-82
2023/07/28 01:25:27;;;;;;;22.80;11.15;;;18.40;99.90;;;;;;5085174;27;20043;-82
2023/07/28 01:27:54;;;;;;;29.30;12.00;;;18.40;99.90;;;;;;5093220;27;20495;-81
2023/07/28 01:30:21;;;;;;;31.08;12.13;;;18.40;99.90;;;;;;5092707;27;20042;-82
2023/07/28 01:32:47;;;;;;;27.02;11.48;;;18.40;99.90;;;;;;5082643;27;20075;-82
2023/07/28 01:35:13;;;;;;;23.45;11.63;;;18.40;99.90;;;;;;5108322;27;20158;-82
2023/07/28 01:37:39;;;;;;;26.25;11.73;;;18.40;99.90;;;;;;5096622;27;20067;-85
2023/07/28 01:40:05;;;;;;;24.15;12.95;;;18.40;99.90;;;;;;5106597;27;20304;-86
2023/07/28 01:42:31;;;;;;;28.48;12.88;;;18.40;99.90;;;;;;5092804;27;20126;-85
2023/07/28 01:44:57;;;;;;;23.00;11.88;;;18.40;99.90;;;;;;5104947;27;20130;-85
2023/07/28 01:47:22;;;;;;;22.77;12.15;;;18.40;99.90;;;;;;5087582;28;20043;-86
2023/07/28 01:49:48;;;;;;;24.23;12.15;;;18.40;99.90;;;;;;5089368;27;20036;-86
2023/07/28 01:52:14;;;;;;;21.63;11.45;;;18.40;99.90;;;;;;5097515;27;20041;-86
2023/07/28 01:54:39;;;;;;;22.77;12.48;;;18.40;99.90;;;;;;5086614;27;20047;-85
2023/07/28 01:57:05;;;;;;;21.50;11.95;;;18.40;99.90;;;;;;5084092;27;20138;-86
2023/07/28 01:59:31;;;;;;;32.55;12.23;;;18.40;99.90;;;;;;5088646;27;20395;-86
2023/07/28 02:01:58;;;;;;;31.55;13.38;;;18.40;99.90;;;;;;5080259;27;20539;-86
2023/07/28 02:04:23;;;;;;;24.70;12.13;;;18.40;99.90;;;;;;5102289;27;20067;-87
2023/07/28 02:06:49;;;;;;;27.48;12.15;;;18.40;99.90;;;;;;5102188;27;20068;-85
2023/07/28 02:09:15;;;;;;;26.10;12.90;;;18.40;99.90;;;;;;5112080;27;20039;-86
2023/07/28 02:11:41;;;;;;;26.60;13.00;;;18.40;99.90;;;;;;5085138;27;20196;-86
2023/07/28 02:14:06;;;;;;;30.17;13.30;;;18.40;99.90;;;;;;5099369;27;20154;-86
2023/07/28 02:16:32;;;;;;;24.10;13.35;;;18.40;99.90;;;;;;5098238;27;20047;-85
2023/07/28 02:18:58;;;;;;;24.80;12.85;;;18.40;99.90;;;;;;5085422;27;20052;-86
2023/07/28 02:21:23;;;;;;;25.60;12.55;;;18.40;99.90;;;;;;5100010;27;20065;-85
2023/07/28 02:23:49;;;;;;;23.05;12.27;;;18.40;99.90;;;;;;5109777;27;20082;-85
2023/07/28 02:26:15;;;;;;;24.38;11.90;;;18.40;99.90;;;;;;5101923;27;20122;-86
2023/07/28 02:28:40;;;;;;;31.38;13.20;;;18.40;99.90;;;;;;5105420;27;20198;-85
2023/07/28 02:31:06;;;;;;;25.90;12.82;;;18.40;99.90;;;;;;5086894;27;20046;-85
2023/07/28 02:33:35;;;;;;;24.33;11.77;;;18.40;99.90;;;;;;5095280;27;20505;-85
2023/07/28 02:36:01;;;;;;;27.60;12.02;;;18.40;99.90;;;;;;5079255;27;20035;-85
2023/07/28 02:38:27;;;;;;;25.50;11.43;;;18.40;99.90;;;;;;5100617;27;20488;-85
2023/07/28 02:40:53;;;;;;;24.27;10.90;;;18.40;99.90;;;;;;5105289;27;20043;-85
2023/07/28 02:43:18;;;;;;;28.63;12.13;;;18.40;99.90;;;;;;5089322;27;20051;-85
2023/07/28 02:45:48;;;;;;;20.55;11.07;;;18.40;99.90;;;;;;5105765;27;20423;-85
2023/07/28 02:48:14;;;;;;;23.40;11.68;;;18.40;99.90;;;;;;5093010;27;20643;-86
2023/07/28 02:50:45;;;;;;;27.80;11.40;;;18.40;99.90;;;;;;5102644;27;20232;-85
2023/07/28 02:53:11;;;;;;;24.67;12.02;;;18.40;99.90;;;;;;5091198;27;20066;-85
2023/07/28 02:55:43;;;;;;;23.90;12.02;;;18.40;99.90;;;;;;5105327;27;20023;-85
2023/07/28 02:58:10;;;;;;;25.88;11.55;;;18.40;99.90;;;;;;5102226;27;21048;-86
2023/07/28 03:00:46;;;;;;;23.38;11.35;;;18.40;99.90;;;;;;5104567;27;20035;-86
2023/07/28 03:03:12;;;;;;;26.02;11.10;;;18.40;99.90;;;;;;5106040;27;20391;-85
2023/07/28 03:05:39;;;;;;;27.67;11.93;;;18.40;99.90;;;;;;5093089;27;20790;-85
2023/07/28 03:08:05;;;;;;;24.92;10.93;;;18.40;99.90;;;;;;5087330;28;20070;-87
2023/07/28 03:10:32;;;;;;;22.20;11.40;;;18.40;99.90;;;;;;5081389;28;20078;-86
2023/07/28 03:12:58;;;;;;;28.33;11.05;;;18.40;99.90;;;;;;5104807;27;20039;-85
2023/07/28 03:15:24;;;;;;;19.98;10.52;;;18.40;99.90;;;;;;5104185;27;20100;-85
2023/07/28 03:17:50;;;;;;;25.58;11.65;;;18.40;99.90;;;;;;5091724;28;20084;-85
2023/07/28 03:20:16;;;;;;;28.95;10.32;;;18.40;99.90;;;;;;5084057;28;20569;-85
2023/07/28 03:22:42;;;;;;;27.88;11.18;;;18.40;99.90;;;;;;5096160;27;20248;-85
2023/07/28 03:25:08;;;;;;;19.08;9.85;;;18.40;99.90;;;;;;5094444;27;20221;-85
2023/07/28 03:27:33;;;;;;;15.43;9.95;;;18.40;99.90;;;;;;5100715;28;20046;-85
2023/07/28 03:30:00;;;;;;;25.20;10.40;;;18.40;99.90;;;;;;5099878;27;20263;-85
2023/07/28 03:32:25;;;;;;;24.30;10.43;;;18.40;99.90;;;;;;5105140;27;20126;-85
2023/07/28 03:34:52;;;;;;;23.20;10.32;;;18.40;99.90;;;;;;5102811;28;20118;-85
2023/07/28 03:37:19;;;;;;;20.20;9.50;;;18.40;99.90;;;;;;5100135;28;20527;-85
2023/07/28 03:39:44;;;;;;;16.85;9.30;;;18.40;99.90;;;;;;5091225;28;20486;-85
2023/07/28 03:42:10;;;;;;;23.17;9.35;;;18.40;99.90;;;;;;5099984;27;20046;-85
2023/07/28 03:44:37;;;;;;;17.92;9.00;;;18.40;99.90;;;;;;5089179;27;20078;-85
2023/07/28 03:47:03;;;;;;;24.13;8.50;;;18.40;99.90;;;;;;5091689;27;20551;-85
2023/07/28 03:49:29;;;;;;;17.27;8.32;;;18.40;99.90;;;;;;5108696;27;20130;-85
2023/07/28 03:51:55;;;;;;;20.60;9.48;;;18.40;99.90;;;;;;5123735;27;20126;-85
2023/07/28 03:54:21;;;;;;;19.85;9.10;;;18.40;99.90;;;;;;5107841;27;20043;-85
2023/07/28 03:56:47;;;;;;;19.45;8.23;;;18.40;99.90;;;;;;5091717;27;20027;-85
2023/07/28 03:59:12;;;;;;;21.08;8.63;;;18.40;99.90;;;;;;5105279;27;20553;-85
2023/07/28 04:01:38;;;;;;;18.70;8.27;;;18.40;99.90;;;;;;5088639;27;20039;-85
2023/07/28 04:04:04;;;;;;;21.58;8.50;;;18.40;99.90;;;;;;5105570;27;20402;-85
2023/07/28 04:06:59;;;;;;;22.20;9.32;;;18.30;99.90;;;;;;5090132;27;20046;-82
2023/07/28 04:09:24;;;;;;;18.55;8.10;;;18.40;99.90;;;;;;5106237;27;20046;-82
2023/07/28 04:11:50;;;;;;;21.45;8.27;;;18.40;99.90;;;;;;5120506;27;20031;-82
2023/07/28 04:14:18;;;;;;;15.60;7.95;;;18.40;99.90;;;;;;5114550;27;20043;-85
2023/07/28 04:16:44;;;;;;;18.80;8.48;;;18.40;99.90;;;;;;5095187;27;20038;-81
2023/07/28 04:19:10;;;;;;;18.45;8.05;;;18.40;99.90;;;;;;5105412;27;20355;-82
2023/07/28 04:21:39;;;;;;;18.63;8.32;;;18.40;99.90;;;;;;5129534;27;20031;-82
2023/07/28 04:24:07;;;;;;;15.48;7.47;;;18.40;99.90;;;;;;5115566;27;20042;-81
2023/07/28 04:26:32;;;;;;;19.40;8.05;;;18.40;99.90;;;;;;5094565;27;20450;-81
2023/07/28 04:28:58;;;;;;;19.35;7.93;;;18.40;99.90;;;;;;5095817;27;20046;-81
2023/07/28 04:31:24;;;;;;;15.50;7.57;;;18.40;99.90;;;;;;5091283;27;20047;-82
2023/07/28 04:33:50;;;;;;;16.20;7.35;;;18.40;99.90;;;;;;5081466;27;20605;-82
2023/07/28 04:36:15;;;;;;;14.10;7.47;;;18.50;99.90;;;;;;5089413;27;20046;-81
2023/07/28 04:38:41;;;;;;;15.80;7.47;;;18.50;99.90;;;;;;5108501;27;20049;-82
2023/07/28 04:41:10;;;;;;;15.02;7.53;;;18.50;99.90;;;;;;5089038;27;20034;-82
2023/07/28 04:43:35;;;;;;;14.05;7.43;;;18.50;99.90;;;;;;5112291;27;20050;-82
2023/07/28 04:46:01;;;;;;;15.52;7.05;;;18.50;99.90;;;;;;5092269;27;20079;-81
2023/07/28 04:48:27;;;;;;;14.80;7.30;;;18.50;99.90;;;;;;5122716;27;20387;-82
2023/07/28 04:50:53;;;;;;;13.75;6.93;;;18.60;99.90;;;;;;5122784;27;20066;-85
2023/07/28 04:53:19;;;;;;;17.13;7.38;;;18.60;99.90;;;;;;5129479;27;20077;-84
2023/07/28 04:55:45;;;;;;;16.33;6.97;;;18.60;99.90;;;;;;5098750;27;20039;-82
2023/07/28 04:58:10;;;;;;;14.20;6.78;;;18.60;99.90;;;;;;5112078;27;20363;-82
2023/07/28 05:00:36;;;;;;;12.80;7.03;;;18.60;99.90;;;;;;5096720;27;20110;-82
2023/07/28 05:03:02;;;;;;;13.02;7.20;;;18.70;99.90;;;;;;5100028;27;20047;-81
2023/07/28 05:05:29;;;;;;;14.18;6.72;;;18.60;99.90;;;;;;5086926;27;20043;-81
2023/07/28 05:07:55;;;;;;;13.45;6.30;;;18.70;99.90;;;;;;5114122;27;20145;-81
2023/07/28 05:10:20;;;;;;;13.15;6.82;;;18.70;99.90;;;;;;5089316;27;20153;-85
2023/07/28 05:12:46;;;;;;;16.70;7.70;;;18.70;99.90;;;;;;5125822;27;20518;-85
2023/07/28 05:15:20;;;;;;;14.10;6.40;;;18.70;99.90;;;;;;5106365;27;20047;-86
2023/07/28 05:17:45;;;;;;;14.57;7.32;;;18.60;99.90;;;;;;5090159;27;20035;-85
2023/07/28 05:20:11;;;;;;;15.38;6.93;;;18.60;99.90;;;;;;5086888;27;20031;-85
2023/07/28 05:22:37;;;;;;;15.77;7.13;;;18.70;99.90;;;;;;5100925;27;20043;-85
2023/07/28 05:25:03;;;;;;;12.77;6.53;;;18.70;99.90;;;;;;5094819;27;20507;-84
2023/07/28 05:27:29;;;;;;;17.00;6.50;;;18.70;99.90;;;;;;5111855;27;20043;-85
2023/07/28 05:29:54;;;;;;;15.43;7.07;;;18.80;99.90;;;;;;5099789;27;20391;-85
2023/07/28 05:32:20;;;;;;;12.82;7.07;;;18.80;99.90;;;;;;5100297;27;20242;-85
2023/07/28 05:34:46;;;;;;;13.23;6.93;;;18.80;99.90;;;;;;5090853;27;20398;-85
2023/07/28 05:37:12;;;;;;;13.82;7.13;;;18.70;99.90;;;;;;5087101;27;20238;-86
2023/07/28 05:39:37;;;;;;;9.57;6.50;;;18.80;99.90;;;;;;5124270;27;20043;-85
2023/07/28 05:42:03;;;;;;;14.38;6.85;;;18.80;99.90;;;;;;5089450;27;20403;-86
2023/07/28 05:44:29;;;;;;;14.45;6.78;;;18.80;99.90;;;;;;5099270;27;20559;-85
2023/07/28 05:46:55;;;;;;;11.45;6.75;;;18.90;99.90;;;;;;5102023;27;20039;-85
2023/07/28 05:49:20;;;;;;;10.05;6.25;;;18.90;99.90;;;;;;5110127;27;20284;-85
2023/07/28 05:51:46;;;;;;;14.20;6.35;;;19.00;99.90;;;;;;5123355;27;20043;-85
2023/07/28 05:54:14;;;;;;;11.73;6.70;;;19.00;99.90;;;;;;5086671;27;20035;-86
2023/07/28 05:56:40;;;;;;;10.95;5.70;;;19.00;99.90;;;;;;5119080;27;20039;-85
2023/07/28 05:59:06;;;;;;;12.52;5.72;;;19.00;99.90;;;;;;5109200;27;20131;-85
2023/07/28 06:01:33;;;;;;;11.70;6.05;;;19.10;99.90;;;;;;5112476;27;20034;-85
2023/07/28 06:03:59;;;;;;;11.90;5.85;;;19.20;99.90;;;;;;5114705;27;20039;-85
2023/07/28 06:06:26;;;;;;;13.27;6.45;;;19.20;99.90;;;;;;5102576;27;20035;-85
2023/07/28 06:08:52;;;;;;;9.77;6.50;;;19.20;99.90;;;;;;5095757;27;20027;-85
2023/07/28 06:11:18;;;;;;;12.77;5.65;;;19.20;99.90;;;;;;5087552;27;20893;-85
2023/07/28 06:13:44;;;;;;;10.80;5.57;;;19.20;99.90;;;;;;5108768;27;20073;-85
2023/07/28 06:16:09;;;;;;;9.30;5.57;;;19.30;99.90;;;;;;5104684;27;20035;-86
2023/07/28 06:18:35;;;;;;;9.57;5.25;;;19.50;99.90;;;;;;5084208;27;20417;-85
2023/07/28 06:21:01;;;;;;;8.40;5.53;;;19.40;99.90;;;;;;5096918;27;20038;-81
2023/07/28 06:23:27;;;;;;;10.90;5.30;;;19.30;99.90;;;;;;5110339;27;20031;-81
2023/07/28 06:25:54;;;;;;;9.82;5.10;;;19.40;99.90;;;;;;5098515;27;20263;-81
2023/07/28 06:28:20;;;;;;;8.65;4.80;;;19.40;99.90;;;;;;5113257;27;20035;-81
2023/07/28 06:30:46;;;;;;;8.90;5.47;;;19.40;99.90;;;;;;5084470;27;20419;-81
2023/07/28 06:33:12;;;;;;;9.57;5.88;;;19.40;99.90;;;;;;5088829;27;20039;-81
2023/07/28 06:35:37;;;;;;;8.23;5.35;;;19.30;99.90;;;;;;5082803;27;20046;-81
2023/07/28 06:38:07;;;;;;;9.27;5.40;;;19.30;99.90;;;;;;5091090;27;20206;-81
2023/07/28 06:40:32;;;;;;;7.40;5.32;;;19.30;99.90;;;;;;5109532;27;20046;-81
2023/07/28 06:43:01;;;;;;;7.88;5.40;;;19.50;99.90;;;;;;5106465;27;20260;-81
2023/07/28 06:45:26;;;;;;;10.15;5.68;;;19.50;99.90;;;;;;5107986;27;20516;-81
2023/07/28 06:47:52;;;;;;;9.90;5.35;;;19.60;99.90;;;;;;5079002;27;20082;-81
2023/07/28 06:50:18;;;;;;;6.60;4.95;;;19.70;99.90;;;;;;5084956;27;20565;-81
2023/07/28 06:52:44;;;;;;;8.60;5.22;;;19.60;99.90;;;;;;5089476;27;20074;-82
2023/07/28 06:55:09;;;;;;;7.72;5.28;;;19.60;99.90;;;;;;5106180;27;20070;-81
2023/07/28 06:57:35;;;;;;;9.15;5.72;;;19.70;99.90;;;;;;5103062;27;21137;-81
2023/07/28 07:00:01;;;;;;;11.48;6.43;;;19.80;99.90;;;;;;5105326;27;20034;-81
2023/07/28 07:02:26;;;;;;;9.45;5.40;;;19.80;99.90;;;;;;5126623;27;20125;-81
2023/07/28 07:04:52;;;;;;;9.55;5.57;;;19.90;99.90;;;;;;5098843;27;20039;-81
2023/07/28 07:07:18;;;;;;;8.38;5.80;;;19.80;99.90;;;;;;5089831;27;20035;-82
2023/07/28 07:09:43;;;;;;;10.38;5.90;;;19.60;99.90;;;;;;5107459;27;20471;-81
2023/07/28 07:12:11;;;;;;;8.77;5.75;;;19.70;99.90;;;;;;5105510;27;20114;-81
2023/07/28 07:14:37;;;;;;;8.35;6.40;;;19.60;99.90;;;;;;5086031;27;20055;-82
2023/07/28 07:17:03;;;;;;;8.00;5.97;;;19.50;99.90;;;;;;5093410;27;20039;-82
2023/07/28 07:19:31;;;;;;;9.02;5.85;;;19.50;99.90;;;;;;5102677;27;20042;-81
2023/07/28 07:21:56;;;;;;;10.82;5.88;;;19.60;99.90;;;;;;5102595;27;20032;-81
2023/07/28 07:24:22;;;;;;;7.68;5.55;;;19.70;99.90;;;;;;5087666;27;20066;-81
2023/07/28 07:26:47;;;;;;;7.22;4.82;;;19.70;99.90;;;;;;5085142;27;20039;-81
2023/07/28 07:29:13;;;;;;;11.88;5.57;;;19.80;99.90;;;;;;5091866;27;20043;-81
2023/07/28 07:31:42;;;;;;;7.32;5.40;;;20.00;99.90;;;;;;5121310;27;20035;-82
2023/07/28 07:34:07;;;;;;;6.43;4.32;;;20.10;99.90;;;;;;5102744;27;20585;-82
2023/07/28 07:36:33;;;;;;;7.05;4.15;;;20.10;99.90;;;;;;5101394;27;20072;-81
2023/07/28 07:39:02;;;;;;;6.68;4.15;;;20.10;99.90;;;;;;5097817;27;20462;-82
2023/07/28 07:41:29;;;;;;;4.88;4.38;;;20.10;99.90;;;;;;5114765;27;20114;-82
2023/07/28 07:43:55;;;;;;;5.15;4.18;;;20.10;99.90;;;;;;5103707;27;20051;-82
2023/07/28 07:46:20;;;;;;;6.82;4.55;;;20.30;99.90;;;;;;5090751;27;20035;-82
2023/07/28 07:48:46;;;;;;;5.22;4.25;;;20.30;99.90;;;;;;5107490;27;20046;-82
2023/07/28 07:51:12;;;;;;;7.07;4.30;;;20.30;99.90;;;;;;5079704;27;20050;-82
2023/07/28 07:53:38;;;;;;;4.63;4.07;;;20.40;99.90;;;;;;5107043;27;20546;-82
2023/07/28 07:56:04;;;;;;;5.57;4.18;;;20.40;99.90;;;;;;5093334;27;20106;-82
2023/07/28 07:58:30;;;;;;;4.75;3.80;;;20.40;99.90;;;;;;5103259;27;20042;-81
2023/07/28 08:00:57;;;;;;;6.32;3.97;;;20.60;99.90;;;;;;5101848;27;21272;-82
2023/07/28 08:03:22;;;;;;;4.70;3.55;;;20.60;99.90;;;;;;5098341;27;20388;-82
2023/07/28 08:05:48;;;;;;;4.40;3.92;;;20.80;99.90;;;;;;5081882;27;20035;-82
2023/07/28 08:08:19;;;;;;;4.72;3.47;;;20.70;99.90;;;;;;5092428;27;20167;-83
2023/07/28 08:10:48;;;;;;;4.38;3.50;;;20.60;99.90;;;;;;5086421;27;20121;-81
2023/07/28 08:13:15;;;;;;;4.07;3.03;;;20.60;99.90;;;;;;5088838;27;20039;-82
2023/07/28 08:15:44;;;;;;;5.50;2.97;;;20.70;99.90;;;;;;5105863;27;20467;-83
2023/07/28 08:18:12;;;;;;;6.40;3.90;;;20.70;99.90;;;;;;5107483;27;20312;-82
2023/07/28 08:20:37;;;;;;;6.70;3.65;;;20.70;99.90;;;;;;5106835;27;20606;-82
2023/07/28 08:23:03;;;;;;;4.07;3.50;;;20.70;99.90;;;;;;5091105;27;20137;-83
2023/07/28 08:25:29;;;;;;;4.40;3.58;;;20.80;99.90;;;;;;5096282;27;20142;-82
2023/07/28 08:27:54;;;;;;;5.00;3.70;;;21.10;99.90;;;;;;5108187;27;20034;-82
2023/07/28 08:30:20;;;;;;;6.53;3.75;;;21.40;99.90;;;;;;5124789;27;20045;-82
2023/07/28 08:32:46;;;;;;;4.95;3.20;;;21.40;99.90;;;;;;5109620;27;20035;-82
2023/07/28 08:35:12;;;;;;;6.10;3.28;;;21.70;99.90;;;;;;5095992;27;20046;-82
2023/07/28 08:37:37;;;;;;;4.32;3.15;;;21.70;99.90;;;;;;5092500;27;20303;-82
2023/07/28 08:40:04;;;;;;;4.93;3.10;;;21.70;99.90;;;;;;5094627;27;20031;-82
2023/07/28 08:42:35;;;;;;;6.18;3.20;;;22.00;99.90;;;;;;5077819;27;20116;-82
2023/07/28 08:45:04;;;;;;;4.28;2.78;;;21.80;99.90;;;;;;5114437;27;20262;-82
2023/07/28 08:47:30;;;;;;;4.55;2.90;;;21.60;99.90;;;;;;5112447;27;20151;-82
2023/07/28 08:49:57;;;;;;;6.38;2.92;;;21.50;99.90;;;;;;5110173;27;20649;-82
2023/07/28 08:52:23;;;;;;;4.75;3.28;;;21.60;99.90;;;;;;5128613;27;20112;-82
2023/07/28 08:54:50;;;;;;;6.45;2.90;;;21.50;99.90;;;;;;5086987;27;20489;-82
2023/07/28 08:57:16;;;;;;;4.15;2.90;;;21.40;99.90;;;;;;5100415;27;20038;-82
2023/07/28 08:59:47;;;;;;;3.78;2.80;;;21.40;99.90;;;;;;5109781;27;20037;-82
2023/07/28 09:02:15;;;;;;;5.07;2.95;;;21.40;99.90;;;;;;5097616;27;20494;-82
2023/07/28 09:04:42;;;;;;;3.45;2.63;;;21.60;99.90;;;;;;5120055;27;20517;-82
2023/07/28 09:07:08;;;;;;;10.23;3.10;;;22.00;99.90;;;;;;5108911;27;20023;-82
2023/07/28 09:09:33;;;;;;;4.28;2.70;;;21.80;99.90;;;;;;5111864;27;20462;-82
2023/07/28 09:12:00;;;;;;;4.43;2.70;;;21.80;99.90;;;;;;5099077;27;20030;-82
2023/07/28 09:14:26;;;;;;;4.90;2.42;;;21.70;99.90;;;;;;5096412;27;20282;-82
2023/07/28 09:16:52;;;;;;;3.80;2.65;;;21.70;99.90;;;;;;5100449;27;20039;-83
2023/07/28 09:19:20;;;;;;;3.30;2.85;;;21.80;99.90;;;;;;5085008;27;20077;-83
2023/07/28 09:22:01;;;;;;;5.45;2.58;;;22.30;99.90;;;;;;5088585;27;20466;-83
2023/07/28 09:24:34;;;;;;;4.53;2.50;;;22.80;99.90;;;;;;5128475;27;20035;-83
2023/07/28 09:27:00;;;;;;;3.58;2.95;;;22.70;99.90;;;;;;5102981;27;20041;-83
2023/07/28 09:29:29;;;;;;;3.67;2.78;;;23.10;99.90;;;;;;5106459;27;20051;-83
2023/07/28 09:32:06;;;;;;;4.65;2.83;;;22.80;99.90;;;;;;5102035;27;20031;-83
2023/07/28 09:34:34;;;;;;;3.63;2.40;;;22.60;99.90;;;;;;5089243;27;20045;-83
2023/07/28 09:37:01;;;;;;;3.60;2.35;;;22.40;99.90;;;;;;5106148;27;20062;-82
2023/07/28 09:39:28;;;;;;;3.05;2.22;;;22.60;99.90;;;;;;5125148;27;20045;-83
2023/07/28 09:41:58;;;;;;;3.75;2.30;;;22.50;99.90;;;;;;5091268;27;20039;-83
2023/07/28 09:44:23;;;;;;;3.85;2.00;;;22.90;99.90;;;;;;5096838;27;20047;-83
2023/07/28 09:46:55;;;;;;;5.85;2.40;;;22.80;99.90;;;;;;5119348;27;20084;-83
2023/07/28 09:49:41;;;;;;;4.95;2.55;;;22.70;99.90;;;;;;5099075;27;20223;-82
2023/07/28 09:52:12;;;;;;;3.33;2.13;;;22.50;99.90;;;;;;5105941;27;20037;-83
2023/07/28 09:54:42;;;;;;;3.63;2.30;;;22.70;99.90;;;;;;5093938;27;20075;-82
2023/07/28 09:57:13;;;;;;;12.75;3.25;;;22.70;99.90;;;;;;5106227;27;20035;-83
2023/07/28 09:59:41;;;;;;;3.70;2.20;;;22.90;99.90;;;;;;5106164;27;20443;-82
2023/07/28 10:02:08;;;;;;;3.22;2.40;;;23.00;99.90;;;;;;5092062;27;20491;-83
2023/07/28 10:04:35;;;;;;;3.78;2.70;;;22.70;99.90;;;;;;5110682;27;20045;-83
2023/07/28 10:07:01;;;;;;;3.75;2.20;;;22.60;99.90;;;;;;5109975;27;20035;-83
2023/07/28 10:09:30;;;;;;;3.55;2.40;;;22.40;99.90;;;;;;5134858;27;20047;-83
2023/07/28 10:11:56;;;;;;;4.78;2.53;;;22.60;99.90;;;;;;5102861;27;20114;-83
2023/07/28 10:14:30;;;;;;;4.60;2.33;;;22.70;99.90;;;;;;5088656;27;20039;-83
2023/07/28 10:17:02;;;;;;;4.55;2.58;;;23.00;99.90;;;;;;5105144;27;20039;-83
2023/07/28 10:19:28;;;;;;;5.03;2.53;;;23.20;99.90;;;;;;5124295;27;20475;-83
2023/07/28 10:22:08;;;;;;;4.32;3.00;;;23.60;99.90;;;;;;5090336;27;20074;-83
2023/07/28 10:25:00;;;;;;;6.25;3.20;;;23.50;99.90;;;;;;5109761;27;20051;-83
2023/07/28 10:27:38;;;;;;;6.75;2.83;;;23.10;99.90;;;;;;5106078;27;20118;-83
2023/07/28 10:30:12;;;;;;;3.97;2.83;;;22.80;99.90;;;;;;5084230;27;20043;-83
2023/07/28 10:32:40;;;;;;;5.68;2.75;;;23.20;99.90;;;;;;5100873;27;20458;-83
2023/07/28 10:35:12;;;;;;;4.63;2.70;;;22.90;99.90;;;;;;5087318;27;20187;-82
2023/07/28 10:37:38;;;;;;;3.95;3.10;;;22.70;99.90;;;;;;5109255;27;20038;-83
2023/07/28 10:40:23;;;;;;;4.10;2.65;;;22.70;99.90;;;;;;5096304;27;20034;-83
2023/07/28 10:42:50;;;;;;;4.82;2.70;;;23.10;99.90;;;;;;5094379;27;20063;-83
2023/07/28 10:45:16;;;;;;;4.95;2.80;;;23.60;99.90;;;;;;5112030;27;20382;-83
2023/07/28 10:47:43;;;;;;;4.03;2.60;;;23.80;99.90;;;;;;5108643;27;20024;-83
2023/07/28 10:50:09;;;;;;;4.53;2.83;;;23.40;99.90;;;;;;5087108;27;20043;-83
2023/07/28 10:52:40;;;;;;;5.15;2.65;;;23.30;99.90;;;;;;5102594;27;20031;-83
2023/07/28 10:55:22;;;;;;;4.78;2.70;;;23.40;99.90;;;;;;5095234;27;20034;-83
2023/07/28 10:57:49;;;;;;;3.42;2.45;;;23.30;99.90;;;;;;5077797;27;20111;-84
2023/07/28 11:00:17;;;;;;;4.70;2.58;;;23.50;99.90;;;;;;5089301;27;20122;-83
2023/07/28 11:02:49;;;;;;;3.95;2.50;;;24.00;99.90;;;;;;5112472;27;20152;-83
2023/07/28 11:05:42;;;;;;;4.03;2.45;;;24.20;99.90;;;;;;5098611;27;20046;-83
2023/07/28 11:08:07;;;;;;;2.88;2.30;;;24.20;99.90;;;;;;5098850;27;20043;-83
2023/07/28 11:10:35;;;;;;;3.78;2.60;;;23.60;99.90;;;;;;5102988;27;20050;-83
2023/07/28 11:13:05;;;;;;;4.78;2.60;;;23.50;99.90;;;;;;5118366;27;20049;-83
2023/07/28 11:15:33;;;;;;;4.70;2.50;;;23.40;99.90;;;;;;5094715;27;20043;-84
2023/07/28 11:17:59;;;;;;;7.75;2.83;;;23.50;99.90;;;;;;5116262;27;21227;-83
2023/07/28 11:20:28;;;;;;;4.55;2.65;;;23.30;99.90;;;;;;5117011;27;20038;-83
2023/07/28 11:22:56;;;;;;;3.75;2.45;;;23.50;99.90;;;;;;5107912;27;20066;-82
2023/07/28 11:25:23;;;;;;;4.15;2.35;;;23.40;99.90;;;;;;5119996;27;20038;-83
2023/07/28 11:27:50;;;;;;;3.95;2.40;;;23.10;99.90;;;;;;5127889;27;20044;-83
2023/07/28 11:30:18;;;;;;;5.15;3.05;;;23.00;99.90;;;;;;5126145;27;20460;-83
2023/07/28 11:32:45;;;;;;;3.95;2.50;;;22.80;99.90;;;;;;5115568;27;20032;-83
2023/07/28 11:35:13;;;;;;;5.90;2.40;;;23.10;99.90;;;;;;5091760;27;20091;-84
2023/07/28 11:37:40;;;;;;;3.90;2.45;;;23.30;99.90;;;;;;5112175;27;20043;-83
2023/07/28 11:40:10;;;;;;;3.65;2.40;;;23.20;99.90;;;;;;5108212;27;20028;-84
2023/07/28 11:42:38;;;;;;;3.28;2.20;;;23.20;99.90;;;;;;5087005;27;20047;-84
2023/07/28 11:45:06;;;;;;;3.92;2.33;;;23.50;99.90;;;;;;5097256;27;20038;-84
2023/07/28 11:47:32;;;;;;;2.72;2.00;;;24.00;99.90;;;;;;5097222;27;20050;-83
2023/07/28 11:49:58;;;;;;;4.50;2.03;;;24.10;99.90;;;;;;5092680;27;20229;-83
2023/07/28 11:52:34;;;;;;;4.57;2.00;;;23.90;99.90;;;;;;5083787;27;20255;-84
2023/07/28 11:55:01;;;;;;;3.05;1.98;;;23.90;99.90;;;;;;5093171;27;20050;-83
2023/07/28 11:57:30;;;;;;;3.22;1.95;;;24.00;99.90;;;;;;5089490;27;20061;-84
2023/07/28 11:59:57;;;;;;;3.65;2.20;;;24.20;99.90;;;;;;5127767;27;20070;-83
2023/07/28 12:02:30;;;;;;;2.53;1.92;;;24.10;99.90;;;;;;5090158;27;20031;-84
2023/07/28 12:04:58;;;;;;;3.13;1.80;;;24.20;99.90;;;;;;5094069;27;20042;-83
2023/07/28 12:07:31;;;;;;;2.97;1.67;;;24.00;99.90;;;;;;5106426;27;20027;-84
2023/07/28 12:10:02;;;;;;;4.32;1.85;;;23.80;99.90;;;;;;5132062;27;20413;-84
2023/07/28 12:12:30;;;;;;;2.90;1.95;;;23.50;99.90;;;;;;5089143;27;20054;-84
2023/07/28 12:15:04;;;;;;;2.35;2.00;;;23.50;99.90;;;;;;5130618;27;20346;-84
2023/07/28 12:17:30;;;;;;;4.10;1.95;;;23.50;99.90;;;;;;5092694;27;20212;-84
2023/07/28 12:20:01;;;;;;;2.25;1.63;;;23.70;99.90;;;;;;5094136;27;20035;-84
2023/07/28 12:22:28;;;;;;;3.25;1.85;;;24.50;99.90;;;;;;5113183;27;20502;-84
2023/07/28 12:24:54;;;;;;;3.78;2.03;;;24.20;99.90;;;;;;5091108;27;20399;-83
2023/07/28 12:27:23;;;;;;;3.22;1.73;;;23.90;99.90;;;;;;5103996;27;20027;-84
2023/07/28 12:29:49;;;;;;;2.10;1.52;;;24.00;99.90;;;;;;5096231;27;20047;-84
2023/07/28 12:32:15;;;;;;;2.88;1.60;;;24.30;99.90;;;;;;5107328;27;20043;-84
2023/07/28 12:34:41;;;;;;;4.82;1.70;;;24.20;99.90;;;;;;5084880;27;20069;-84
2023/07/28 12:37:07;;;;;;;2.83;1.88;;;24.10;99.90;;;;;;5085575;27;20118;-84
2023/07/28 12:39:38;;;;;;;2.95;1.75;;;24.30;99.90;;;;;;5102002;27;20062;-84
2023/07/28 12:42:06;;;;;;;5.38;1.88;;;24.20;99.90;;;;;;5135022;27;20043;-84